Time;durP1;ratioP1;P1;durP2;ratioP2;P2;SDS_P1;SDS_P2;PMS_P1;PMS_P2;Temp;Humidity;BMP_temperature;BMP_pressure;BME280_temperature;BME280_humidity;BME280_pressure;Samples;Min_cycle;Max_cycle;Signal;HPM_P1;HPM_P2
2022/03/05 00:00:15;;;;;;;29.25;15.27;;;3.10;69.30;;;;;;5016807;28;25111;-75
2022/03/05 00:02:41;;;;;;;29.67;14.95;;;3.10;69.40;;;;;;5035127;28;25075;-75
2022/03/05 00:05:06;;;;;;;29.35;14.32;;;3.00;70.10;;;;;;5022435;28;25104;-74
2022/03/05 00:07:32;;;;;;;26.10;14.15;;;3.00;70.30;;;;;;5004427;28;25125;-77
2022/03/05 00:09:58;;;;;;;25.58;13.80;;;3.00;71.40;;;;;;5010716;28;25069;-74
2022/03/05 00:12:23;;;;;;;28.42;14.60;;;2.90;72.00;;;;;;5013979;28;25151;-75
2022/03/05 00:14:49;;;;;;;27.00;14.93;;;2.90;72.30;;;;;;5005346;28;25065;-73
2022/03/05 00:17:14;;;;;;;29.13;14.63;;;2.90;72.60;;;;;;4995926;28;25060;-75
2022/03/05 00:19:40;;;;;;;28.98;13.43;;;2.90;73.20;;;;;;5013509;28;25062;-72
2022/03/05 00:22:06;;;;;;;27.15;14.32;;;2.90;73.60;;;;;;5006280;28;25102;-75
2022/03/05 00:24:31;;;;;;;32.60;14.65;;;2.90;73.50;;;;;;4998954;28;25089;-74
2022/03/05 00:26:57;;;;;;;28.70;15.57;;;2.80;74.20;;;;;;5012865;28;25071;-74
2022/03/05 00:29:24;;;;;;;30.00;16.50;;;2.80;74.80;;;;;;5013025;28;25089;-72
2022/03/05 00:31:50;;;;;;;32.95;16.85;;;2.70;75.60;;;;;;5013116;28;25135;-75
2022/03/05 00:34:16;;;;;;;28.70;15.02;;;2.70;75.90;;;;;;5011833;28;25208;-75
2022/03/05 00:36:42;;;;;;;34.58;16.85;;;2.70;76.00;;;;;;5012686;28;25082;-74
2022/03/05 00:39:07;;;;;;;30.48;17.42;;;2.70;75.90;;;;;;5012035;28;25141;-76
2022/03/05 00:41:33;;;;;;;33.75;15.88;;;2.60;76.60;;;;;;5011938;28;25075;-74
2022/03/05 00:43:59;;;;;;;33.60;16.25;;;2.60;77.00;;;;;;4994364;28;25061;-77
2022/03/05 00:46:25;;;;;;;32.78;15.90;;;2.60;77.70;;;;;;5008973;28;25062;-75
2022/03/05 00:48:52;;;;;;;31.60;16.75;;;2.50;77.70;;;;;;4990758;28;25049;-74
2022/03/05 00:51:17;;;;;;;33.72;16.35;;;2.50;78.00;;;;;;5002216;28;25056;-75
2022/03/05 00:53:43;;;;;;;34.45;17.88;;;2.50;78.70;;;;;;5002743;28;25108;-75
2022/03/05 00:56:09;;;;;;;35.72;20.80;;;2.50;78.90;;;;;;5011120;28;25162;-74
2022/03/05 00:58:34;;;;;;;34.75;18.08;;;2.50;78.80;;;;;;5012755;28;25189;-75
2022/03/05 01:01:00;;;;;;;34.45;19.58;;;2.50;79.10;;;;;;5012711;28;25099;-77
2022/03/05 01:03:25;;;;;;;38.10;19.05;;;2.50;79.30;;;;;;5009546;28;25073;-76
2022/03/05 01:05:51;;;;;;;36.10;17.77;;;2.40;79.20;;;;;;5004329;28;25148;-74
2022/03/05 01:08:17;;;;;;;36.28;18.23;;;2.50;80.10;;;;;;4992805;28;25078;-75
2022/03/05 01:10:43;;;;;;;35.08;18.77;;;2.50;79.90;;;;;;4977890;28;25075;-76
2022/03/05 01:13:09;;;;;;;44.50;20.42;;;2.40;80.70;;;;;;4993802;28;25071;-75
2022/03/05 01:15:34;;;;;;;41.10;19.48;;;2.30;81.70;;;;;;5011029;28;25065;-75
2022/03/05 01:18:00;;;;;;;35.83;19.98;;;2.30;81.80;;;;;;5006189;28;25070;-75
2022/03/05 01:20:25;;;;;;;41.28;21.10;;;2.30;82.20;;;;;;5006227;28;25047;-77
2022/03/05 01:22:51;;;;;;;36.53;18.98;;;2.30;82.60;;;;;;5010308;28;25168;-76
2022/03/05 01:25:16;;;;;;;40.83;20.92;;;2.30;83.00;;;;;;5010590;28;25173;-75
2022/03/05 01:27:42;;;;;;;42.88;21.13;;;2.30;82.60;;;;;;4992481;28;25081;-72
2022/03/05 01:30:08;;;;;;;38.05;21.23;;;2.20;82.60;;;;;;5001396;28;25067;-75
2022/03/05 01:32:34;;;;;;;41.10;20.88;;;2.20;82.90;;;;;;5012335;28;25063;-74
2022/03/05 01:34:59;;;;;;;40.58;20.25;;;2.20;82.90;;;;;;5011804;28;25144;-77
2022/03/05 01:37:25;;;;;;;44.80;22.27;;;2.10;83.90;;;;;;5010323;28;25065;-76
2022/03/05 01:39:50;;;;;;;43.70;21.25;;;2.10;84.50;;;;;;5011458;28;25047;-74
2022/03/05 01:42:20;;;;;;;42.47;21.20;;;2.10;84.60;;;;;;5011152;28;25065;-77
2022/03/05 01:44:46;;;;;;;39.78;21.50;;;2.20;84.40;;;;;;5008032;28;25100;-76
2022/03/05 01:47:11;;;;;;;40.35;22.25;;;2.20;84.20;;;;;;4999452;28;25110;-75
2022/03/05 01:49:37;;;;;;;49.72;22.92;;;2.10;84.00;;;;;;5011140;28;25073;-74
2022/03/05 01:52:03;;;;;;;47.08;23.27;;;2.10;84.90;;;;;;5011704;28;25089;-74
2022/03/05 01:54:30;;;;;;;46.70;23.42;;;2.00;85.30;;;;;;5011277;28;25065;-73
2022/03/05 01:56:57;;;;;;;46.28;24.05;;;2.00;85.40;;;;;;5012413;28;25160;-72
2022/03/05 01:59:22;;;;;;;44.28;23.33;;;2.00;85.80;;;;;;5012904;28;25072;-73
2022/03/05 02:01:49;;;;;;;45.15;22.90;;;2.00;85.60;;;;;;5003892;28;25073;-74
2022/03/05 02:04:14;;;;;;;46.35;23.45;;;2.00;85.40;;;;;;5009956;28;25051;-73
2022/03/05 02:06:40;;;;;;;44.40;23.55;;;2.00;86.60;;;;;;4993083;28;25073;-73
2022/03/05 02:09:05;;;;;;;47.40;23.88;;;2.00;87.00;;;;;;5010744;28;25126;-74
2022/03/05 02:11:31;;;;;;;46.92;24.23;;;2.00;87.90;;;;;;5024263;28;25065;-75
2022/03/05 02:13:56;;;;;;;47.42;22.77;;;2.00;87.60;;;;;;5027752;28;25104;-75
2022/03/05 02:16:22;;;;;;;45.08;24.40;;;2.00;87.50;;;;;;5013787;28;25152;-74
2022/03/05 02:18:50;;;;;;;46.05;22.92;;;2.00;87.20;;;;;;5011776;28;25149;-74
2022/03/05 02:21:16;;;;;;;46.55;23.70;;;2.00;87.50;;;;;;5011056;28;25054;-74
2022/03/05 02:23:42;;;;;;;46.35;24.98;;;1.90;87.80;;;;;;5003900;28;25141;-75
2022/03/05 02:26:08;;;;;;;47.67;24.25;;;1.90;87.30;;;;;;5010354;28;25074;-74
2022/03/05 02:28:36;;;;;;;48.20;24.95;;;1.90;87.10;;;;;;5009941;28;25083;-75
2022/03/05 02:31:02;;;;;;;42.42;23.27;;;1.90;86.70;;;;;;5010118;28;25077;-75
2022/03/05 02:33:28;;;;;;;45.95;24.58;;;1.80;86.80;;;;;;5009519;28;25074;-75
2022/03/05 02:35:53;;;;;;;49.90;25.17;;;1.80;87.00;;;;;;5010727;28;25064;-75
2022/03/05 02:38:22;;;;;;;49.00;24.92;;;1.60;87.70;;;;;;5010601;28;25081;-75
2022/03/05 02:40:49;;;;;;;50.58;25.50;;;1.60;88.80;;;;;;5010340;28;25058;-74
2022/03/05 02:43:15;;;;;;;53.80;27.10;;;1.60;88.80;;;;;;5010746;28;25043;-75
2022/03/05 02:45:41;;;;;;;50.70;27.15;;;1.70;88.30;;;;;;5010579;28;25060;-75
2022/03/05 02:48:10;;;;;;;49.63;25.33;;;1.60;88.20;;;;;;5007882;28;25059;-74
2022/03/05 02:50:37;;;;;;;51.25;25.85;;;1.50;89.10;;;;;;5008575;28;25082;-74
2022/03/05 02:53:03;;;;;;;54.63;26.88;;;1.40;89.50;;;;;;5010978;28;25092;-74
2022/03/05 02:55:29;;;;;;;57.95;27.00;;;1.30;90.00;;;;;;5005033;28;25134;-75
2022/03/05 02:57:55;;;;;;;62.28;28.67;;;1.30;90.20;;;;;;4998723;28;25078;-73
2022/03/05 03:00:21;;;;;;;53.20;27.17;;;1.30;90.40;;;;;;5004367;28;25098;-76
2022/03/05 03:02:46;;;;;;;53.75;26.55;;;1.20;90.70;;;;;;5016077;28;25061;-76
2022/03/05 03:05:13;;;;;;;57.10;27.67;;;1.20;91.00;;;;;;5035321;28;25074;-77
2022/03/05 03:07:39;;;;;;;55.15;27.95;;;1.20;90.80;;;;;;5034389;28;25058;-78
2022/03/05 03:10:07;;;;;;;55.90;27.75;;;1.10;90.90;;;;;;5033136;28;25093;-79
2022/03/05 03:12:32;;;;;;;58.80;27.52;;;1.10;91.10;;;;;;5024845;28;25072;-75
2022/03/05 03:14:58;;;;;;;54.72;25.38;;;1.10;91.20;;;;;;4996248;28;25159;-73
2022/03/05 03:17:24;;;;;;;51.30;26.20;;;1.10;91.30;;;;;;5016033;28;25071;-72
2022/03/05 03:19:50;;;;;;;49.85;26.88;;;1.10;91.50;;;;;;5020182;28;25088;-76
2022/03/05 03:22:16;;;;;;;53.78;27.38;;;1.00;91.50;;;;;;4984646;28;25056;-74
2022/03/05 03:24:42;;;;;;;52.78;26.95;;;1.00;91.60;;;;;;5006806;28;25088;-75
2022/03/05 03:27:08;;;;;;;61.78;28.02;;;1.00;91.60;;;;;;4991025;28;25055;-74
2022/03/05 03:29:34;;;;;;;58.47;27.02;;;1.00;91.50;;;;;;4980168;28;25109;-74
2022/03/05 03:32:00;;;;;;;57.28;27.25;;;0.90;91.70;;;;;;5004428;28;25080;-78
2022/03/05 03:34:26;;;;;;;60.42;29.58;;;0.80;91.90;;;;;;5026805;28;25088;-77
2022/03/05 03:36:51;;;;;;;55.67;27.65;;;0.80;92.10;;;;;;5026352;28;25075;-76
2022/03/05 03:39:17;;;;;;;61.10;25.85;;;0.80;92.40;;;;;;5008720;28;25063;-75
2022/03/05 03:41:42;;;;;;;52.78;26.40;;;0.80;92.70;;;;;;5020892;28;25051;-73
2022/03/05 03:44:08;;;;;;;61.05;30.15;;;0.80;92.50;;;;;;5017068;28;25126;-74
2022/03/05 03:46:34;;;;;;;59.42;28.70;;;0.70;92.60;;;;;;5014245;28;25128;-74
2022/03/05 03:49:00;;;;;;;59.67;28.25;;;0.70;92.60;;;;;;5015210;28;25068;-75
2022/03/05 03:51:26;;;;;;;59.30;27.42;;;0.70;92.70;;;;;;5018731;28;25078;-75
2022/03/05 03:53:51;;;;;;;59.00;27.35;;;0.70;92.70;;;;;;5018253;28;25080;-74
2022/03/05 03:56:17;;;;;;;55.38;28.70;;;0.70;92.80;;;;;;5027031;28;25062;-76
2022/03/05 03:58:43;;;;;;;53.35;25.75;;;0.80;92.50;;;;;;5023621;28;25176;-76
2022/03/05 04:01:08;;;;;;;58.15;28.58;;;0.80;92.60;;;;;;5015507;28;25072;-74
2022/03/05 04:03:34;;;;;;;65.70;28.08;;;0.70;92.80;;;;;;5013280;28;25052;-74
2022/03/05 04:06:00;;;;;;;56.92;26.67;;;0.70;93.20;;;;;;5011920;28;25123;-73
2022/03/05 04:08:44;;;;;;;57.20;26.70;;;0.70;93.20;;;;;;5010787;28;25144;-75
2022/03/05 04:11:15;;;;;;;62.25;28.52;;;0.70;93.20;;;;;;5010107;28;25151;-75
2022/03/05 04:13:43;;;;;;;63.63;28.77;;;0.70;93.10;;;;;;5010134;28;25100;-75
2022/03/05 04:16:09;;;;;;;66.38;30.17;;;0.60;93.30;;;;;;5010073;28;25077;-73
2022/03/05 04:18:34;;;;;;;52.35;25.30;;;0.60;93.10;;;;;;5010019;28;25122;-75
2022/03/05 04:21:01;;;;;;;66.72;30.70;;;0.60;93.60;;;;;;5010677;28;25072;-74
2022/03/05 04:23:27;;;;;;;62.28;28.35;;;0.50;93.20;;;;;;5026884;28;25053;-72
2022/03/05 04:25:53;;;;;;;57.45;27.85;;;0.40;93.60;;;;;;5018054;28;25077;-73
2022/03/05 04:28:19;;;;;;;64.10;28.90;;;0.40;93.80;;;;;;5010945;28;25074;-74
2022/03/05 04:30:45;;;;;;;57.47;27.42;;;0.40;94.00;;;;;;5013557;28;25093;-74
2022/03/05 04:33:11;;;;;;;58.58;26.23;;;0.40;93.90;;;;;;5012680;28;25102;-76
2022/03/05 04:35:37;;;;;;;70.60;29.65;;;0.30;94.00;;;;;;5012812;28;25057;-75
2022/03/05 04:38:04;;;;;;;61.95;29.15;;;0.30;94.00;;;;;;5006026;28;25076;-75
2022/03/05 04:40:29;;;;;;;61.03;26.80;;;0.30;94.30;;;;;;5011460;28;25064;-75
2022/03/05 04:42:55;;;;;;;57.47;27.92;;;0.30;94.10;;;;;;5014034;28;25050;-79
2022/03/05 04:45:20;;;;;;;60.90;28.60;;;0.20;94.10;;;;;;5028707;28;25072;-75
2022/03/05 04:47:46;;;;;;;65.10;28.05;;;0.20;94.30;;;;;;5016641;28;25148;-75
2022/03/05 04:50:12;;;;;;;58.95;27.92;;;0.30;94.70;;;;;;5022494;28;25057;-75
2022/03/05 04:52:38;;;;;;;57.92;26.23;;;0.20;94.50;;;;;;5021371;28;25074;-74
2022/03/05 04:55:05;;;;;;;61.03;28.25;;;0.20;94.70;;;;;;5020804;28;25139;-76
2022/03/05 04:57:31;;;;;;;64.03;30.20;;;0.20;95.00;;;;;;5012917;28;25063;-77
2022/03/05 04:59:57;;;;;;;61.63;28.17;;;0.10;95.00;;;;;;5010819;28;25081;-75
2022/03/05 05:02:22;;;;;;;61.35;27.50;;;0.20;95.20;;;;;;5003104;28;25061;-76
2022/03/05 05:04:48;;;;;;;59.13;26.70;;;0.20;95.10;;;;;;5024593;28;25154;-76
2022/03/05 05:07:13;;;;;;;67.88;29.17;;;0.30;95.10;;;;;;5020767;28;25161;-74
2022/03/05 05:09:40;;;;;;;57.60;28.63;;;0.30;94.80;;;;;;5015802;28;25066;-75
2022/03/05 05:12:07;;;;;;;60.63;27.00;;;0.30;94.60;;;;;;5015523;28;25132;-77
2022/03/05 05:14:32;;;;;;;59.72;28.02;;;0.20;95.00;;;;;;4999624;28;25056;-76
2022/03/05 05:16:58;;;;;;;65.57;29.17;;;0.30;95.10;;;;;;5010388;28;25081;-75
2022/03/05 05:19:29;;;;;;;57.60;27.05;;;0.40;94.80;;;;;;5003431;28;25127;-76
2022/03/05 05:22:00;;;;;;;62.25;30.02;;;0.40;94.40;;;;;;4989026;28;25052;-75
2022/03/05 05:24:28;;;;;;;62.67;29.55;;;0.30;94.30;;;;;;5001366;28;24900;-77
2022/03/05 05:26:55;;;;;;;61.50;29.45;;;0.20;94.40;;;;;;5004660;28;25074;-75
2022/03/05 05:29:21;;;;;;;64.82;28.17;;;0.20;94.60;;;;;;4989131;28;25081;-76
2022/03/05 05:31:47;;;;;;;55.85;27.13;;;0.10;94.70;;;;;;5003507;28;25070;-74
2022/03/05 05:34:12;;;;;;;62.47;29.48;;;0.00;94.80;;;;;;5005420;28;25096;-75
2022/03/05 05:36:38;;;;;;;59.55;27.48;;;0.00;95.00;;;;;;5007919;28;25143;-75
2022/03/05 05:39:06;;;;;;;63.35;29.15;;;0.10;95.00;;;;;;5012805;28;25111;-75
2022/03/05 05:41:31;;;;;;;63.33;28.40;;;0.10;94.80;;;;;;5012816;28;25065;-75
2022/03/05 05:43:57;;;;;;;59.10;28.45;;;0.00;95.10;;;;;;4993727;28;25067;-76
2022/03/05 05:46:23;;;;;;;65.03;30.55;;;0.00;95.30;;;;;;4994530;28;25071;-74
2022/03/05 05:48:48;;;;;;;67.53;30.08;;;0.00;95.40;;;;;;5011268;28;25068;-73
2022/03/05 05:51:14;;;;;;;64.70;27.63;;;0.00;95.60;;;;;;5011346;28;25061;-75
2022/03/05 05:53:39;;;;;;;64.57;27.83;;;0.00;95.90;;;;;;5010125;28;25096;-76
2022/03/05 05:56:05;;;;;;;65.00;28.45;;;0.00;95.60;;;;;;5011057;28;25114;-76
2022/03/05 05:58:30;;;;;;;64.07;30.30;;;0.00;95.40;;;;;;5011201;28;25053;-71
2022/03/05 06:00:56;;;;;;;62.40;27.98;;;-0.10;95.50;;;;;;5008228;28;25066;-75
2022/03/05 06:03:22;;;;;;;67.38;29.58;;;-0.10;95.70;;;;;;4984656;28;25078;-74
2022/03/05 06:05:47;;;;;;;69.70;29.23;;;-0.10;95.50;;;;;;5011372;28;25062;-73
2022/03/05 06:08:13;;;;;;;63.80;29.73;;;-0.10;95.50;;;;;;5010742;28;25053;-75
2022/03/05 06:10:39;;;;;;;69.30;30.02;;;0.00;95.50;;;;;;5012514;28;25148;-76
2022/03/05 06:13:04;;;;;;;67.03;30.33;;;-0.10;95.20;;;;;;5010361;28;25061;-77
2022/03/05 06:15:30;;;;;;;70.43;31.42;;;-0.30;95.40;;;;;;5006722;28;25072;-74
2022/03/05 06:17:57;;;;;;;69.70;30.85;;;-0.30;95.60;;;;;;5007472;28;25061;-76
2022/03/05 06:20:23;;;;;;;64.15;30.13;;;-0.20;95.70;;;;;;5003581;28;25085;-75
2022/03/05 06:22:48;;;;;;;68.53;31.98;;;-0.20;95.50;;;;;;5010052;28;25062;-75
2022/03/05 06:25:14;;;;;;;65.45;32.08;;;-0.30;95.70;;;;;;5010754;28;25057;-74
2022/03/05 06:27:39;;;;;;;71.55;32.20;;;-0.30;96.30;;;;;;5015450;28;25091;-74
2022/03/05 06:30:06;;;;;;;76.55;33.90;;;-0.30;96.10;;;;;;5000902;28;25101;-74
2022/03/05 06:32:31;;;;;;;72.90;32.72;;;-0.30;96.00;;;;;;5015134;28;25101;-75
2022/03/05 06:34:57;;;;;;;74.80;33.67;;;-0.30;96.00;;;;;;5012971;28;25174;-73
2022/03/05 06:37:23;;;;;;;76.70;33.38;;;-0.40;96.10;;;;;;5015215;28;25063;-75
2022/03/05 06:39:49;;;;;;;69.75;32.03;;;-0.50;96.20;;;;;;5012540;28;25142;-74
2022/03/05 06:42:15;;;;;;;75.28;32.63;;;-0.50;96.50;;;;;;5012989;28;25054;-76
2022/03/05 06:44:40;;;;;;;65.38;31.17;;;-0.50;96.70;;;;;;4996871;28;25096;-75
2022/03/05 06:47:06;;;;;;;71.82;32.10;;;-0.50;96.70;;;;;;5014562;28;25156;-75
2022/03/05 06:49:32;;;;;;;80.68;33.08;;;-0.40;96.40;;;;;;5014031;28;25050;-75
2022/03/05 06:51:58;;;;;;;68.53;32.22;;;-0.40;96.60;;;;;;5011160;28;25076;-74
2022/03/05 06:54:24;;;;;;;78.18;33.35;;;-0.40;96.60;;;;;;5012570;28;25161;-74
2022/03/05 06:56:49;;;;;;;81.93;32.55;;;-0.40;96.50;;;;;;5011809;28;25057;-75
2022/03/05 06:59:15;;;;;;;78.82;35.17;;;-0.40;96.50;;;;;;4993553;28;25074;-75
2022/03/05 07:01:41;;;;;;;76.40;31.90;;;-0.50;96.70;;;;;;5011835;28;25058;-75
2022/03/05 07:04:07;;;;;;;74.45;32.22;;;-0.50;96.90;;;;;;5011349;28;25048;-75
2022/03/05 07:06:32;;;;;;;79.18;33.03;;;-0.40;97.00;;;;;;5012514;28;25100;-76
2022/03/05 07:08:58;;;;;;;68.07;29.83;;;-0.40;97.00;;;;;;5014292;28;25070;-77
2022/03/05 07:11:23;;;;;;;77.05;33.80;;;-0.30;97.00;;;;;;4996950;28;25105;-76
2022/03/05 07:13:49;;;;;;;81.72;31.65;;;-0.30;96.90;;;;;;5009862;28;25144;-76
2022/03/05 07:16:15;;;;;;;74.60;32.55;;;-0.30;96.90;;;;;;5010391;28;25072;-76
2022/03/05 07:18:40;;;;;;;72.13;33.60;;;-0.30;96.80;;;;;;5009399;28;25137;-75
2022/03/05 07:21:06;;;;;;;74.78;32.85;;;-0.10;96.80;;;;;;5010393;28;25050;-76
2022/03/05 07:23:32;;;;;;;67.05;31.90;;;-0.20;96.50;;;;;;4993513;28;25080;-74
2022/03/05 07:25:57;;;;;;;75.63;31.70;;;-0.20;96.60;;;;;;5012547;28;25048;-75
2022/03/05 07:28:23;;;;;;;71.63;31.52;;;-0.10;96.60;;;;;;5023309;28;25080;-75
2022/03/05 07:30:49;;;;;;;80.13;34.03;;;-0.10;96.50;;;;;;5025319;28;25059;-77
2022/03/05 07:33:15;;;;;;;64.75;30.17;;;-0.10;96.60;;;;;;5012061;28;25062;-77
2022/03/05 07:35:42;;;;;;;73.35;33.22;;;0.00;96.70;;;;;;5011956;28;25068;-77
2022/03/05 07:38:08;;;;;;;74.95;32.95;;;0.00;96.40;;;;;;5009396;28;25103;-76
2022/03/05 07:40:33;;;;;;;76.03;32.08;;;0.00;96.40;;;;;;5009858;28;25102;-73
2022/03/05 07:42:59;;;;;;;71.53;32.60;;;0.10;96.40;;;;;;5009891;28;25144;-74
2022/03/05 07:45:24;;;;;;;70.03;32.65;;;0.20;96.40;;;;;;5009907;28;25127;-74
2022/03/05 07:47:50;;;;;;;74.53;31.92;;;0.20;96.00;;;;;;5009365;28;25076;-77
2022/03/05 07:50:16;;;;;;;66.80;30.35;;;0.20;96.20;;;;;;5010891;28;25080;-75
2022/03/05 07:52:41;;;;;;;68.85;31.48;;;0.30;96.30;;;;;;5011307;28;25081;-74
2022/03/05 07:55:08;;;;;;;70.43;32.03;;;0.40;96.20;;;;;;5010901;28;25067;-75
2022/03/05 07:57:33;;;;;;;69.22;31.45;;;0.50;96.00;;;;;;5010319;28;25058;-75
2022/03/05 07:59:59;;;;;;;76.57;33.22;;;0.60;95.80;;;;;;5010169;28;25076;-76
2022/03/05 08:02:24;;;;;;;70.28;31.77;;;0.60;95.60;;;;;;5011217;28;25125;-75
2022/03/05 08:04:50;;;;;;;71.35;33.97;;;0.80;95.40;;;;;;4995350;28;25065;-75
2022/03/05 08:07:17;;;;;;;71.60;32.35;;;0.80;94.90;;;;;;5015877;28;25052;-74
2022/03/05 08:09:43;;;;;;;75.18;33.55;;;0.90;94.40;;;;;;4996778;28;25063;-75
2022/03/05 08:12:10;;;;;;;75.57;33.78;;;1.00;94.10;;;;;;5014177;28;25077;-75
2022/03/05 08:14:39;;;;;;;76.00;33.97;;;1.20;93.50;;;;;;5013885;28;25072;-75
2022/03/05 08:17:05;;;;;;;70.03;30.70;;;1.20;93.00;;;;;;5013767;28;25082;-75
2022/03/05 08:19:30;;;;;;;74.80;32.65;;;1.30;92.80;;;;;;5014013;28;25161;-75
2022/03/05 08:21:56;;;;;;;70.40;30.80;;;1.30;92.20;;;;;;5013865;28;25047;-75
2022/03/05 08:24:21;;;;;;;65.38;29.67;;;1.40;92.30;;;;;;5014158;28;25066;-76
2022/03/05 08:26:47;;;;;;;64.70;30.60;;;1.60;91.80;;;;;;5012366;28;25099;-72
2022/03/05 08:29:12;;;;;;;65.30;31.88;;;1.80;91.20;;;;;;5013523;28;25069;-75
2022/03/05 08:31:38;;;;;;;67.00;32.55;;;1.90;90.10;;;;;;5014277;28;25063;-76
2022/03/05 08:34:03;;;;;;;67.95;30.42;;;2.00;89.20;;;;;;5013886;28;25067;-75
2022/03/05 08:36:29;;;;;;;66.45;31.73;;;2.10;88.30;;;;;;5013742;28;25159;-75
2022/03/05 08:38:56;;;;;;;65.45;29.85;;;2.20;87.30;;;;;;5013840;28;25083;-74
2022/03/05 08:41:21;;;;;;;71.07;32.05;;;2.10;86.80;;;;;;5014733;28;25131;-75
2022/03/05 08:43:47;;;;;;;64.32;30.63;;;2.40;86.90;;;;;;5018315;28;25175;-74
2022/03/05 08:46:12;;;;;;;69.15;30.80;;;2.40;84.50;;;;;;5027674;28;25088;-75
2022/03/05 08:48:38;;;;;;;69.18;31.02;;;2.70;86.50;;;;;;5021753;28;25063;-75
2022/03/05 08:51:03;;;;;;;66.50;30.92;;;2.70;83.20;;;;;;4997638;28;25050;-75
2022/03/05 08:53:29;;;;;;;64.45;30.95;;;2.60;81.80;;;;;;4996245;28;25107;-76
2022/03/05 08:55:55;;;;;;;69.10;31.88;;;2.70;81.80;;;;;;4996848;28;25069;-75
2022/03/05 08:58:21;;;;;;;63.78;30.38;;;2.70;82.30;;;;;;5015227;28;25053;-75
2022/03/05 09:00:48;;;;;;;61.78;30.17;;;2.60;82.90;;;;;;5016018;28;25400;-75
2022/03/05 09:03:14;;;;;;;65.25;30.50;;;2.80;82.20;;;;;;5017055;28;25063;-74
2022/03/05 09:05:40;;;;;;;62.08;30.85;;;2.90;80.80;;;;;;5015700;28;25137;-74
2022/03/05 09:08:06;;;;;;;60.22;30.38;;;3.10;80.40;;;;;;5015551;28;25055;-74
2022/03/05 09:10:32;;;;;;;62.08;31.65;;;3.00;78.20;;;;;;5013763;28;25059;-75
2022/03/05 09:12:58;;;;;;;61.50;28.15;;;3.40;80.50;;;;;;5011062;28;25095;-77
2022/03/05 09:15:24;;;;;;;68.15;31.60;;;3.80;78.90;;;;;;5012501;28;25129;-76
2022/03/05 09:17:49;;;;;;;64.32;31.38;;;3.80;75.60;;;;;;4997119;28;25117;-74
2022/03/05 09:20:15;;;;;;;62.47;31.10;;;3.60;74.20;;;;;;5013532;28;25099;-76
2022/03/05 09:22:41;;;;;;;62.42;29.20;;;3.70;75.80;;;;;;5013253;28;25074;-75
2022/03/05 09:25:08;;;;;;;67.25;31.77;;;4.20;75.80;;;;;;5012573;28;25082;-75
2022/03/05 09:27:34;;;;;;;60.60;30.50;;;4.20;71.00;;;;;;4994545;28;25144;-75
2022/03/05 09:30:00;;;;;;;60.33;30.83;;;4.00;72.30;;;;;;5009380;28;25069;-75
2022/03/05 09:32:26;;;;;;;56.25;29.75;;;3.90;73.20;;;;;;5009963;28;25106;-75
2022/03/05 09:34:52;;;;;;;59.65;29.83;;;4.00;73.50;;;;;;5010978;28;25090;-75
2022/03/05 09:37:17;;;;;;;65.25;32.38;;;4.30;73.60;;;;;;5010726;28;25148;-76
2022/03/05 09:39:43;;;;;;;56.00;30.13;;;4.40;71.60;;;;;;4992929;28;25162;-77
2022/03/05 09:42:09;;;;;;;59.42;30.80;;;4.30;71.90;;;;;;5010846;28;25069;-76
2022/03/05 09:44:35;;;;;;;63.83;30.65;;;4.50;69.20;;;;;;5012363;28;25064;-76
2022/03/05 09:47:01;;;;;;;62.35;30.48;;;4.30;70.40;;;;;;5013664;28;25064;-75
2022/03/05 09:49:28;;;;;;;53.63;29.77;;;4.30;69.60;;;;;;5012109;28;25106;-74
2022/03/05 09:51:54;;;;;;;63.30;31.17;;;4.30;68.10;;;;;;5012235;28;25078;-76
2022/03/05 09:54:20;;;;;;;61.05;28.35;;;4.10;68.30;;;;;;5012873;28;25085;-76
2022/03/05 09:56:47;;;;;;;60.60;30.40;;;4.50;69.90;;;;;;5013796;28;25107;-75
2022/03/05 09:59:12;;;;;;;60.53;32.30;;;4.60;67.40;;;;;;5013218;28;25078;-75
2022/03/05 10:01:39;;;;;;;59.38;30.92;;;4.50;67.40;;;;;;5012995;28;25083;-76
2022/03/05 10:04:21;;;;;;;63.20;31.65;;;4.50;67.50;;;;;;5012420;28;25135;-76
2022/03/05 10:07:14;;;;;;;66.47;32.07;;;4.90;67.90;;;;;;5015316;28;25081;-77
2022/03/05 10:09:42;;;;;;;68.63;32.90;;;4.80;68.20;;;;;;5015400;28;25064;-76
2022/03/05 10:12:31;;;;;;;64.28;31.02;;;4.70;70.40;;;;;;5019525;28;25063;-75
2022/03/05 10:15:09;;;;;;;64.80;32.38;;;5.00;70.70;;;;;;5024276;28;25083;-75
2022/03/05 10:18:04;;;;;;;60.78;31.35;;;5.60;69.40;;;;;;4983855;28;25052;-77
2022/03/05 10:20:32;;;;;;;56.20;29.35;;;5.70;65.00;;;;;;4998850;28;25057;-76
2022/03/05 10:23:00;;;;;;;72.55;31.30;;;5.40;66.40;;;;;;5017386;28;25116;-77
2022/03/05 10:25:35;;;;;;;69.45;33.30;;;5.50;66.00;;;;;;5011078;28;25082;-77
2022/03/05 10:28:02;;;;;;;57.72;29.55;;;5.20;66.00;;;;;;5005713;28;25089;-76
2022/03/05 10:30:29;;;;;;;64.63;31.40;;;5.10;68.10;;;;;;4993314;28;25086;-76
2022/03/05 10:32:55;;;;;;;63.88;30.88;;;5.20;66.80;;;;;;5001186;28;25090;-76
2022/03/05 10:35:20;;;;;;;62.70;30.90;;;5.20;68.40;;;;;;4989304;28;25099;-79
2022/03/05 10:37:51;;;;;;;61.38;33.30;;;5.30;67.60;;;;;;5008856;28;25142;-76
2022/03/05 10:40:25;;;;;;;63.15;32.63;;;5.40;66.30;;;;;;5001997;28;25155;-77
2022/03/05 10:42:50;;;;;;;59.90;32.08;;;5.10;68.70;;;;;;4998718;28;25079;-76
2022/03/05 10:45:19;;;;;;;65.45;34.03;;;5.20;69.00;;;;;;5009707;28;25107;-77
2022/03/05 10:47:47;;;;;;;64.90;32.63;;;5.20;68.50;;;;;;5004103;28;25073;-75
2022/03/05 10:50:18;;;;;;;71.03;31.80;;;5.30;69.10;;;;;;5006167;28;25090;-78
2022/03/05 10:52:46;;;;;;;59.17;30.77;;;5.20;69.00;;;;;;5020047;28;25048;-78
2022/03/05 10:55:35;;;;;;;57.67;31.77;;;5.60;69.70;;;;;;5024846;28;25060;-79
2022/03/05 10:58:14;;;;;;;65.18;32.50;;;5.70;67.10;;;;;;5019745;28;25051;-78
2022/03/05 11:00:40;;;;;;;64.60;32.05;;;5.70;66.80;;;;;;5007154;28;25089;-77
2022/03/05 11:03:06;;;;;;;57.83;30.25;;;6.10;64.50;;;;;;5015771;28;25054;-79
2022/03/05 11:05:32;;;;;;;61.33;32.88;;;6.20;63.50;;;;;;4994955;28;25096;-78
2022/03/05 11:07:59;;;;;;;58.13;30.95;;;6.10;62.30;;;;;;4990640;28;25080;-76
2022/03/05 11:10:27;;;;;;;56.33;30.63;;;6.20;63.30;;;;;;5014585;28;25054;-79
2022/03/05 11:12:56;;;;;;;54.92;28.67;;;6.40;62.60;;;;;;5013386;28;25157;-74
2022/03/05 11:15:23;;;;;;;61.53;29.45;;;6.20;62.50;;;;;;5015595;28;25072;-78
2022/03/05 11:17:49;;;;;;;57.25;31.77;;;6.30;62.80;;;;;;4998335;28;25054;-75
2022/03/05 11:20:15;;;;;;;58.72;31.15;;;6.30;60.80;;;;;;4991730;28;25056;-77
2022/03/05 11:22:44;;;;;;;55.67;30.48;;;6.40;62.10;;;;;;5009805;28;25060;-80
2022/03/05 11:25:36;;;;;;;58.80;29.73;;;6.90;59.70;;;;;;4976288;28;25033;-76
2022/03/05 11:28:06;;;;;;;57.05;31.67;;;7.30;59.20;;;;;;4999964;28;25086;-77
2022/03/05 11:30:43;;;;;;;58.03;30.90;;;7.70;57.00;;;;;;5005289;28;25099;-76
2022/03/05 11:33:19;;;;;;;57.30;30.77;;;7.90;55.60;;;;;;5003335;28;25093;-78
2022/03/05 11:35:45;;;;;;;59.08;30.50;;;7.70;56.10;;;;;;5007474;28;25065;-76
2022/03/05 11:38:33;;;;;;;55.30;30.42;;;7.60;56.20;;;;;;4999478;28;25049;-77
2022/03/05 11:40:59;;;;;;;63.65;33.38;;;8.20;55.70;;;;;;4996471;28;25091;-75
2022/03/05 11:43:26;;;;;;;55.05;31.08;;;8.40;52.70;;;;;;4969311;28;25060;-78
2022/03/05 11:46:04;;;;;;;63.70;31.92;;;8.10;52.20;;;;;;4979279;28;25145;-77
2022/03/05 11:48:32;;;;;;;57.92;31.02;;;8.10;52.40;;;;;;5002140;28;25069;-76
2022/03/05 11:51:14;;;;;;;59.97;31.80;;;7.60;55.60;;;;;;5001253;28;25075;-77
2022/03/05 11:53:42;;;;;;;60.33;30.33;;;7.60;55.80;;;;;;5001045;28;25070;-76
2022/03/05 11:56:24;;;;;;;58.90;31.13;;;8.00;57.20;;;;;;5008610;28;25089;-76
2022/03/05 11:58:50;;;;;;;57.13;31.88;;;8.30;54.30;;;;;;4997595;28;25073;-76
2022/03/05 12:01:41;;;;;;;55.97;32.80;;;8.50;52.60;;;;;;4991286;28;25088;-78
2022/03/05 12:04:18;;;;;;;52.45;30.65;;;8.20;52.80;;;;;;4987439;28;25148;-76
2022/03/05 12:06:45;;;;;;;59.83;31.85;;;8.60;52.70;;;;;;5002854;28;25099;-77
2022/03/05 12:09:34;;;;;;;54.45;31.45;;;9.10;50.50;;;;;;4997427;28;25059;-77
2022/03/05 12:12:01;;;;;;;56.38;32.40;;;9.00;49.50;;;;;;5006283;28;25117;-79
2022/03/05 12:15:06;;;;;;;56.97;31.75;;;9.20;49.20;;;;;;5006449;28;25102;-78
2022/03/05 12:17:36;;;;;;;55.67;33.15;;;8.70;50.10;;;;;;5009042;28;25060;-77
2022/03/05 12:20:06;;;;;;;61.53;31.60;;;8.50;51.40;;;;;;5015241;28;25086;-77
2022/03/05 12:22:32;;;;;;;54.53;30.38;;;8.60;51.70;;;;;;5013824;28;25070;-78
2022/03/05 12:24:57;;;;;;;57.20;30.65;;;8.70;51.70;;;;;;5009135;28;25064;-76
2022/03/05 12:27:27;;;;;;;54.03;30.13;;;9.30;50.10;;;;;;5022220;28;25071;-77
2022/03/05 12:29:53;;;;;;;54.45;30.83;;;9.50;48.60;;;;;;5011833;28;25068;-77
2022/03/05 12:32:20;;;;;;;62.85;33.15;;;9.80;49.40;;;;;;4989630;28;25070;-77
2022/03/05 12:34:46;;;;;;;55.53;30.88;;;9.70;46.70;;;;;;5007205;28;25087;-77